Time;durP1;ratioP1;P1;durP2;ratioP2;P2;SDS_P1;SDS_P2;PMS_P1;PMS_P2;Temp;Humidity;BMP_temperature;BMP_pressure;BME280_temperature;BME280_humidity;BME280_pressure;Samples;Min_cycle;Max_cycle;Signal;HPM_P1;HPM_P2
2022/03/08 00:01:28;;;;;;;8.70;4.47;;;;;;;-0.40;89.40;94423.31;4946387;29;20206;-80
2022/03/08 00:03:55;;;;;;;8.75;5.20;;;;;;;-0.44;89.30;94432.91;4941994;29;20223;-80
2022/03/08 00:06:24;;;;;;;14.13;6.80;;;;;;;-0.52;90.07;94425.41;4937194;28;20215;-80
2022/03/08 00:08:51;;;;;;;12.82;6.30;;;;;;;-0.47;90.04;94423.56;4942132;29;20218;-78
2022/03/08 00:11:17;;;;;;;15.82;7.13;;;;;;;-0.44;90.12;94422.25;4952552;28;20227;-79
2022/03/08 00:13:45;;;;;;;11.23;5.53;;;;;;;-0.47;90.06;94422.78;4946830;29;20211;-79
2022/03/08 00:16:12;;;;;;;14.43;7.93;;;;;;;-0.41;89.89;94427.06;4943687;28;20661;-80
2022/03/08 00:18:39;;;;;;;9.38;5.05;;;;;;;-0.33;89.68;94425.72;4946759;28;20294;-79
2022/03/08 00:21:06;;;;;;;7.80;4.57;;;;;;;-0.28;88.92;94423.88;4949878;29;20215;-79
2022/03/08 00:23:34;;;;;;;13.07;6.15;;;;;;;-0.27;88.75;94428.09;4947356;29;20226;-79
2022/03/08 00:26:01;;;;;;;13.40;6.97;;;;;;;-0.27;88.97;94428.09;4943743;28;20203;-79
2022/03/08 00:28:28;;;;;;;8.95;4.90;;;;;;;-0.33;88.62;94429.19;4945221;28;20206;-79
2022/03/08 00:30:56;;;;;;;11.77;6.38;;;;;;;-0.32;88.35;94425.47;4950200;29;20208;-79
2022/03/08 00:33:24;;;;;;;12.20;6.20;;;;;;;-0.32;88.27;94424.66;4948007;29;20283;-79
2022/03/08 00:35:50;;;;;;;9.98;4.35;;;;;;;-0.26;88.01;94432.38;4943237;28;20206;-80
2022/03/08 00:38:17;;;;;;;11.25;5.05;;;;;;;-0.23;88.19;94421.19;4944574;28;20215;-80
2022/03/08 00:40:46;;;;;;;15.23;7.15;;;;;;;-0.19;88.26;94424.94;4954010;28;20301;-81
2022/03/08 00:43:13;;;;;;;6.80;4.00;;;;;;;-0.22;87.57;94414.03;4955957;28;20719;-81
2022/03/08 00:45:40;;;;;;;11.35;5.28;;;;;;;-0.13;87.41;94421.19;4950881;28;20207;-82
2022/03/08 00:48:07;;;;;;;7.32;4.35;;;;;;;-0.32;87.93;94420.13;4936848;29;20199;-81
2022/03/08 00:50:34;;;;;;;11.77;5.60;;;;;;;-0.19;87.60;94418.81;4949714;29;20228;-81
2022/03/08 00:53:01;;;;;;;12.38;6.20;;;;;;;-0.34;87.86;94416.94;4948072;29;20605;-81
2022/03/08 00:55:30;;;;;;;13.32;5.72;;;;;;;-0.17;88.14;94416.69;4942975;28;20199;-81
2022/03/08 00:57:59;;;;;;;11.75;5.45;;;;;;;-0.25;87.43;94414.53;4943883;28;20563;-81
2022/03/08 01:00:29;;;;;;;8.75;4.90;;;;;;;-0.31;88.07;94411.09;4948968;29;20211;-82
2022/03/08 01:02:56;;;;;;;8.32;4.60;;;;;;;-0.37;87.45;94406.81;4949733;28;20223;-81
2022/03/08 01:05:23;;;;;;;12.70;6.28;;;;;;;-0.50;88.01;94415.31;4943173;29;20669;-81
2022/03/08 01:07:50;;;;;;;12.40;5.97;;;;;;;-0.40;87.46;94410.00;4942501;28;20219;-80
2022/03/08 01:10:19;;;;;;;14.82;6.57;;;;;;;-0.23;87.60;94410.56;4955503;28;20203;-80
2022/03/08 01:12:48;;;;;;;14.80;6.57;;;;;;;-0.26;87.23;94413.75;4942335;28;20290;-82
2022/03/08 01:15:18;;;;;;;14.10;6.05;;;;;;;-0.29;87.05;94411.63;4947984;28;20204;-81
2022/03/08 01:17:45;;;;;;;10.48;6.13;;;;;;;-0.54;87.56;94407.06;4949483;29;20211;-82
2022/03/08 01:20:13;;;;;;;14.73;6.60;;;;;;;-0.55;88.23;94404.69;4944322;29;20211;-81
2022/03/08 01:22:40;;;;;;;13.10;6.07;;;;;;;-0.45;87.63;94407.34;4943188;28;20582;-82
2022/03/08 01:25:08;;;;;;;18.88;8.80;;;;;;;-0.49;88.07;94401.75;4946095;28;20234;-83
2022/03/08 01:27:35;;;;;;;16.00;8.00;;;;;;;-0.41;88.15;94401.22;4948819;29;20582;-82
2022/03/08 01:30:04;;;;;;;17.00;6.43;;;;;;;-0.32;87.71;94404.19;4945032;29;20222;-82
2022/03/08 01:32:32;;;;;;;9.40;5.28;;;;;;;-0.51;86.84;94405.75;4942023;28;20253;-82
2022/03/08 01:34:59;;;;;;;11.82;6.80;;;;;;;-0.51;86.90;94405.75;4945726;28;20203;-83
2022/03/08 01:37:26;;;;;;;13.15;6.35;;;;;;;-0.34;87.26;94400.97;4948741;29;20263;-82
2022/03/08 01:39:53;;;;;;;13.38;6.28;;;;;;;-0.39;86.99;94398.31;4945982;29;20274;-82
2022/03/08 01:42:23;;;;;;;11.45;5.97;;;;;;;-0.51;86.32;94400.41;4954337;28;20207;-82
2022/03/08 01:44:51;;;;;;;17.95;8.68;;;;;;;-0.48;86.73;94399.91;4954876;28;20211;-81
2022/03/08 01:47:20;;;;;;;5.82;3.45;;;;;;;-0.49;86.21;94404.41;4942248;28;20207;-81
2022/03/08 01:49:50;;;;;;;12.15;5.95;;;;;;;-0.55;86.52;94400.16;4942855;28;20227;-82
2022/03/08 01:52:19;;;;;;;4.93;3.28;;;;;;;-0.45;86.51;94402.03;4948768;28;20235;-82
2022/03/08 01:54:46;;;;;;;14.18;8.00;;;;;;;-0.67;86.76;94396.13;4947900;29;20270;-84
2022/03/08 01:57:14;;;;;;;13.65;6.35;;;;;;;-0.70;86.01;94404.66;4942407;29;20211;-83
2022/03/08 01:59:41;;;;;;;9.73;5.20;;;;;;;-0.62;86.05;94404.13;4941881;28;20207;-84
2022/03/08 02:02:09;;;;;;;13.52;6.80;;;;;;;-0.75;85.84;94400.13;4948279;28;20211;-83
2022/03/08 02:04:36;;;;;;;10.07;5.53;;;;;;;-0.77;85.91;94403.03;4948186;29;20207;-83
2022/03/08 02:07:05;;;;;;;7.38;4.05;;;;;;;-0.77;85.58;94400.38;4935423;29;20627;-83
2022/03/08 02:09:32;;;;;;;14.57;7.18;;;;;;;-0.64;85.85;94404.38;4936815;29;20203;-82
2022/03/08 02:11:59;;;;;;;16.77;6.47;;;;;;;-0.68;86.04;94405.97;4946928;28;20235;-84
2022/03/08 02:14:27;;;;;;;15.25;6.97;;;;;;;-0.61;85.87;94405.72;4947363;29;20698;-83
2022/03/08 02:16:54;;;;;;;10.23;5.80;;;;;;;-0.64;86.00;94403.59;4943116;29;20210;-83
2022/03/08 02:19:21;;;;;;;20.02;8.10;;;;;;;-0.46;86.27;94403.09;4941584;28;20207;-82
2022/03/08 02:21:51;;;;;;;17.40;7.57;;;;;;;-0.39;86.13;94398.31;4946049;28;20228;-84
2022/03/08 02:24:18;;;;;;;13.80;6.43;;;;;;;-0.43;85.75;94407.91;4950835;29;20658;-83
2022/03/08 02:26:46;;;;;;;13.90;6.68;;;;;;;-0.38;84.93;94407.88;4945278;28;20204;-83
2022/03/08 02:29:13;;;;;;;10.65;4.50;;;;;;;-0.44;85.33;94412.41;4948188;29;20222;-83
2022/03/08 02:31:40;;;;;;;15.23;6.78;;;;;;;-0.24;85.10;94400.97;4943268;29;20203;-81
2022/03/08 02:34:07;;;;;;;16.90;7.47;;;;;;;-0.14;85.33;94406.31;4939940;28;20243;-82
2022/03/08 02:36:34;;;;;;;14.15;6.75;;;;;;;-0.42;85.15;94417.47;4944672;28;20214;-82
2022/03/08 02:39:02;;;;;;;14.55;7.32;;;;;;;-0.45;85.14;94415.34;4947674;29;20214;-82
2022/03/08 02:41:29;;;;;;;18.52;7.50;;;;;;;-0.41;85.48;94411.09;4945083;28;20202;-82
2022/03/08 02:43:56;;;;;;;13.52;6.68;;;;;;;-0.37;85.79;94422.78;4953668;28;20217;-82
2022/03/08 02:46:22;;;;;;;16.00;7.60;;;;;;;-0.43;85.89;94419.34;4942396;28;20203;-83
2022/03/08 02:48:50;;;;;;;14.75;6.57;;;;;;;-0.33;85.57;94421.19;4947493;29;20212;-82
2022/03/08 02:51:17;;;;;;;15.77;7.72;;;;;;;-0.32;85.97;94420.13;4945839;28;20227;-84
2022/03/08 02:53:44;;;;;;;15.57;6.97;;;;;;;-0.39;86.05;94419.59;4941144;28;20337;-84
2022/03/08 02:56:13;;;;;;;15.85;7.70;;;;;;;-0.42;85.63;94420.13;4941340;28;20207;-84
2022/03/08 02:58:40;;;;;;;12.77;6.13;;;;;;;-0.35;85.27;94425.97;4947862;29;20211;-85
2022/03/08 03:01:07;;;;;;;17.92;8.65;;;;;;;-0.21;85.85;94424.41;4953410;29;20211;-86
2022/03/08 03:03:34;;;;;;;9.35;5.75;;;;;;;-0.17;84.99;94436.13;4955655;28;20235;-87
2022/03/08 03:06:01;;;;;;;11.45;6.88;;;;;;;-0.39;85.48;94431.03;4952615;29;20210;-86
2022/03/08 03:08:27;;;;;;;18.10;8.32;;;;;;;-0.38;85.50;94435.28;4947851;29;20203;-87
2022/03/08 03:10:54;;;;;;;13.75;7.60;;;;;;;-0.56;85.68;94440.31;4943863;28;20206;-86
2022/03/08 03:13:24;;;;;;;16.02;6.22;;;;;;;-0.49;85.63;94432.88;4949249;28;20236;-86
2022/03/08 03:15:50;;;;;;;17.75;6.63;;;;;;;-0.40;85.73;94434.75;4948107;29;20640;-85
2022/03/08 03:18:18;;;;;;;12.70;6.50;;;;;;;-0.51;85.36;94429.69;4943428;29;20202;-85
2022/03/08 03:20:44;;;;;;;12.55;6.38;;;;;;;-0.36;85.80;94441.16;4940180;28;20219;-84
2022/03/08 03:23:12;;;;;;;17.05;8.10;;;;;;;-0.50;86.00;94431.28;4952758;28;20219;-84
2022/03/08 03:25:39;;;;;;;16.15;7.38;;;;;;;-0.38;85.19;94437.94;4951844;28;20203;-84
2022/03/08 03:28:05;;;;;;;15.60;7.55;;;;;;;-0.32;86.17;94441.44;4933693;29;20215;-85
2022/03/08 03:30:34;;;;;;;21.17;8.20;;;;;;;-0.32;85.58;94443.28;4946622;29;20646;-84
2022/03/08 03:33:03;;;;;;;14.32;7.03;;;;;;;-0.22;85.54;94443.28;4941807;29;20657;-83
2022/03/08 03:35:30;;;;;;;10.60;5.72;;;;;;;-0.22;85.98;94438.78;4940232;28;20204;-85
2022/03/08 03:37:57;;;;;;;14.38;7.70;;;;;;;-0.24;85.96;94440.91;4944360;28;20204;-83
2022/03/08 03:40:24;;;;;;;15.35;8.00;;;;;;;-0.27;86.00;94444.06;4948403;28;20262;-83
2022/03/08 03:42:51;;;;;;;13.25;7.55;;;;;;;-0.25;85.90;94441.94;4953023;28;20199;-83
2022/03/08 03:45:17;;;;;;;13.80;6.63;;;;;;;-0.38;86.83;94442.47;4950800;28;20278;-84
2022/03/08 03:47:46;;;;;;;12.02;6.35;;;;;;;-0.51;86.98;94442.97;4941369;29;20219;-84
2022/03/08 03:50:13;;;;;;;17.23;8.23;;;;;;;-0.48;86.59;94448.59;4940105;28;20236;-84
2022/03/08 03:52:40;;;;;;;16.88;7.85;;;;;;;-0.45;87.10;94437.41;4943650;28;20279;-85
2022/03/08 03:55:08;;;;;;;16.75;8.75;;;;;;;-0.25;86.83;94447.28;4946015;29;20245;-85
2022/03/08 03:57:34;;;;;;;14.13;6.70;;;;;;;-0.07;86.45;94443.31;4942101;29;20207;-85
2022/03/08 04:00:01;;;;;;;15.32;6.63;;;;;;;-0.23;86.15;94434.50;4939217;28;20594;-83
2022/03/08 04:02:28;;;;;;;16.65;8.63;;;;;;;-0.12;86.16;94441.44;4943574;28;20235;-83
2022/03/08 04:04:56;;;;;;;16.23;7.75;;;;;;;-0.07;86.12;94444.09;4946403;29;20694;-84
2022/03/08 04:07:23;;;;;;;14.40;7.53;;;;;;;-0.11;86.42;94442.22;4943440;29;20218;-83
2022/03/08 04:09:50;;;;;;;15.13;7.43;;;;;;;-0.14;85.80;94432.13;4940044;28;20569;-83
2022/03/08 04:12:17;;;;;;;14.82;6.75;;;;;;;-0.09;85.53;94443.56;4942832;28;20242;-83
2022/03/08 04:14:44;;;;;;;15.23;8.15;;;;;;;-0.23;86.79;94442.50;4946640;29;20311;-83
2022/03/08 04:17:11;;;;;;;15.45;7.72;;;;;;;-0.25;86.42;94441.16;4943529;29;20654;-83
2022/03/08 04:19:38;;;;;;;14.57;7.40;;;;;;;-0.18;86.61;94447.03;4939826;28;20207;-83
2022/03/08 04:22:06;;;;;;;18.75;8.43;;;;;;;-0.22;86.28;94446.75;4942275;28;20238;-83
2022/03/08 04:24:34;;;;;;;17.58;8.18;;;;;;;-0.22;86.91;94445.94;4950971;29;20221;-84
2022/03/08 04:27:01;;;;;;;18.95;8.23;;;;;;;-0.38;87.31;94445.13;4941569;28;20210;-84
2022/03/08 04:29:28;;;;;;;17.65;8.88;;;;;;;-0.31;87.43;94445.69;4945950;29;20208;-83
2022/03/08 04:31:55;;;;;;;19.13;9.02;;;;;;;-0.35;87.35;94449.94;4944421;29;20207;-83
2022/03/08 04:34:22;;;;;;;19.55;9.27;;;;;;;-0.28;87.53;94442.50;4934269;28;20231;-83
2022/03/08 04:36:49;;;;;;;19.30;8.80;;;;;;;-0.28;87.47;94447.03;4944908;29;20210;-84
2022/03/08 04:39:17;;;;;;;19.15;8.93;;;;;;;-0.35;87.88;94441.94;4938867;28;20645;-85
2022/03/08 04:41:44;;;;;;;19.17;8.85;;;;;;;-0.41;87.54;94430.50;4952605;28;20630;-85
2022/03/08 04:44:11;;;;;;;15.50;7.55;;;;;;;-0.28;87.36;94442.50;4940047;29;20207;-85
2022/03/08 04:46:38;;;;;;;19.73;9.40;;;;;;;-0.32;87.72;94445.94;4939794;28;20204;-84
2022/03/08 04:49:05;;;;;;;17.90;9.63;;;;;;;-0.28;87.69;94439.84;4939102;29;20681;-84
2022/03/08 04:51:32;;;;;;;17.40;9.15;;;;;;;-0.28;87.75;94436.38;4939506;28;20227;-84
2022/03/08 04:53:59;;;;;;;14.07;7.70;;;;;;;-0.17;86.96;94433.47;4952442;28;20702;-83
2022/03/08 04:56:27;;;;;;;18.67;8.13;;;;;;;-0.21;86.60;94432.38;4939445;28;20582;-84
2022/03/08 04:58:56;;;;;;;17.98;8.50;;;;;;;-0.24;86.89;94440.09;4948587;28;20238;-84
2022/03/08 05:01:23;;;;;;;18.92;8.48;;;;;;;-0.34;87.45;94440.88;4948281;28;20219;-84
2022/03/08 05:03:50;;;;;;;22.33;8.80;;;;;;;-0.28;87.01;94437.19;4944105;29;20211;-82
2022/03/08 05:06:17;;;;;;;14.95;7.47;;;;;;;-0.29;87.58;94440.91;4943426;28;20678;-85
2022/03/08 05:08:44;;;;;;;15.75;7.63;;;;;;;-0.25;86.56;94430.50;4951606;28;20211;-85
2022/03/08 05:11:14;;;;;;;21.17;10.23;;;;;;;-0.12;86.99;94451.28;4949454;29;20214;-81
2022/03/08 05:13:42;;;;;;;16.17;8.35;;;;;;;-0.26;87.10;94445.69;4944718;29;20234;-78
2022/03/08 05:16:09;;;;;;;17.10;8.75;;;;;;;-0.29;86.87;94446.22;4941808;28;20212;-82
2022/03/08 05:18:35;;;;;;;18.95;9.30;;;;;;;-0.24;87.51;94443.56;4946105;28;20207;-81
2022/03/08 05:21:02;;;;;;;20.15;9.55;;;;;;;-0.23;87.22;94445.16;4947478;28;20223;-85
2022/03/08 05:23:29;;;;;;;14.60;7.50;;;;;;;-0.16;86.60;94445.72;4958327;28;20199;-84
2022/03/08 05:25:56;;;;;;;20.92;8.10;;;;;;;-0.18;87.06;94442.50;4939428;28;20211;-81
2022/03/08 05:28:24;;;;;;;16.38;8.63;;;;;;;-0.29;87.11;94445.44;4933659;29;20206;-82
2022/03/08 05:30:53;;;;;;;19.02;9.43;;;;;;;-0.31;87.28;94443.03;4948093;29;20208;-82
2022/03/08 05:33:20;;;;;;;16.50;8.23;;;;;;;-0.27;86.92;94438.75;4943530;29;20235;-81
2022/03/08 05:35:46;;;;;;;15.85;6.88;;;;;;;-0.15;86.49;94436.66;4942148;28;20206;-83
2022/03/08 05:38:13;;;;;;;12.30;5.38;;;;;;;-0.20;86.27;94441.97;4944473;28;20297;-80
2022/03/08 05:40:40;;;;;;;15.00;7.60;;;;;;;-0.48;86.70;94437.13;4952772;28;20191;-80
2022/03/08 05:43:07;;;;;;;10.27;4.45;;;;;;;-0.59;87.18;94435.53;4943889;28;20211;-84
2022/03/08 05:45:34;;;;;;;13.43;6.80;;;;;;;-0.46;86.91;94440.34;4948282;29;20537;-80
2022/03/08 05:48:03;;;;;;;15.65;7.00;;;;;;;-0.33;86.94;94445.16;4943005;28;20210;-86
2022/03/08 05:50:29;;;;;;;7.72;5.03;;;;;;;-0.49;86.90;94446.97;4941796;28;20232;-86
2022/03/08 05:52:56;;;;;;;32.10;16.38;;;;;;;-0.37;87.38;94450.19;4947550;29;20233;-85
2022/03/08 05:55:23;;;;;;;12.23;6.80;;;;;;;-0.38;86.94;94453.13;4941570;28;20214;-87
2022/03/08 05:57:50;;;;;;;18.92;7.72;;;;;;;-0.13;86.16;94461.13;4955701;28;20211;-87
2022/03/08 06:00:17;;;;;;;16.27;6.65;;;;;;;-0.20;85.64;94455.28;4953879;28;20210;-87
2022/03/08 06:02:44;;;;;;;13.10;5.93;;;;;;;-0.12;85.60;94452.09;4961771;28;20934;-86
2022/03/08 06:05:13;;;;;;;19.42;9.30;;;;;;;0.13;85.29;94458.50;4950734;29;20561;-87
2022/03/08 06:07:39;;;;;;;21.98;10.38;;;;;;;0.21;85.24;94449.97;4955048;28;20217;-85
2022/03/08 06:10:08;;;;;;;13.18;6.40;;;;;;;0.11;84.01;94449.97;4961270;28;20203;-81
2022/03/08 06:12:36;;;;;;;12.45;5.75;;;;;;;0.06;85.05;94457.94;4957498;28;20203;-83
2022/03/08 06:15:04;;;;;;;15.73;7.75;;;;;;;0.50;83.74;94452.88;4961435;28;20198;-81
2022/03/08 06:17:31;;;;;;;16.40;5.63;;;;;;;0.44;83.37;94457.41;4962250;28;20195;-85
2022/03/08 06:19:58;;;;;;;7.55;5.43;;;;;;;0.36;83.31;94463.28;4958313;28;20198;-82
2022/03/08 06:22:26;;;;;;;13.85;6.88;;;;;;;0.57;82.30;94454.19;4959760;28;20199;-83
2022/03/08 06:24:53;;;;;;;12.82;6.65;;;;;;;0.56;83.00;94457.91;4958308;28;20207;-83
2022/03/08 06:27:20;;;;;;;8.27;4.82;;;;;;;0.98;81.81;94456.75;4954256;28;20684;-84
2022/03/08 06:29:47;;;;;;;17.35;9.68;;;;;;;0.71;82.09;94463.22;4959278;28;20210;-84
2022/03/08 06:32:14;;;;;;;12.60;7.30;;;;;;;0.81;81.36;94457.09;4960065;28;20576;-82
2022/03/08 06:34:41;;;;;;;17.58;7.63;;;;;;;1.14;80.40;94460.97;4961902;28;20219;-81
2022/03/08 06:37:07;;;;;;;18.70;8.35;;;;;;;1.35;80.12;94459.81;4958285;28;20573;-82
2022/03/08 06:39:36;;;;;;;18.77;8.10;;;;;;;0.90;80.49;94463.44;4958517;28;20201;-81
2022/03/08 06:42:03;;;;;;;17.27;8.60;;;;;;;1.17;80.88;94452.41;4955011;28;20202;-83
2022/03/08 06:44:31;;;;;;;15.60;7.05;;;;;;;1.61;79.28;94462.34;4963152;28;20203;-84
2022/03/08 06:46:58;;;;;;;13.88;6.72;;;;;;;1.27;79.56;94463.03;4939727;28;20565;-82
2022/03/08 06:49:25;;;;;;;14.80;6.65;;;;;;;0.98;80.85;94470.88;4941817;29;20262;-82
2022/03/08 06:51:52;;;;;;;11.27;5.55;;;;;;;0.80;81.06;94468.81;4940041;28;20203;-80
2022/03/08 06:54:20;;;;;;;18.80;9.45;;;;;;;1.14;81.35;94468.97;4942099;28;20236;-80
2022/03/08 06:56:48;;;;;;;16.15;8.13;;;;;;;1.30;79.92;94467.84;4947062;29;20207;-77
2022/03/08 06:59:15;;;;;;;17.77;8.80;;;;;;;1.87;79.47;94466.47;4943589;29;20214;-77
2022/03/08 07:01:42;;;;;;;20.95;9.55;;;;;;;1.78;78.73;94463.56;4940205;28;20226;-79
2022/03/08 07:04:09;;;;;;;14.63;7.88;;;;;;;1.29;79.43;94471.56;4941694;28;20212;-79
2022/03/08 07:06:36;;;;;;;18.38;9.60;;;;;;;0.83;80.59;94467.44;4946545;29;20207;-78
2022/03/08 07:09:03;;;;;;;4.90;2.85;;;;;;;0.60;80.87;94464.31;4953537;28;20282;-75
2022/03/08 07:11:31;;;;;;;8.55;5.38;;;;;;;0.68;80.91;94471.75;4952331;28;20207;-77
2022/03/08 07:13:59;;;;;;;23.98;11.55;;;;;;;1.12;81.40;94472.97;4952393;28;20262;-80
2022/03/08 07:16:26;;;;;;;20.67;9.80;;;;;;;1.20;80.43;94470.56;4942161;28;20204;-79
2022/03/08 07:18:53;;;;;;;16.17;7.95;;;;;;;0.92;80.82;94476.50;4953925;28;20207;-78
2022/03/08 07:21:20;;;;;;;17.02;7.85;;;;;;;1.12;80.89;94470.28;4947608;28;20204;-82
2022/03/08 07:23:47;;;;;;;9.27;5.32;;;;;;;1.32;79.85;94470.22;4953816;28;20211;-76
2022/03/08 07:26:14;;;;;;;15.68;7.85;;;;;;;1.42;78.91;94459.50;4939533;28;20217;-78
2022/03/08 07:28:41;;;;;;;13.13;7.43;;;;;;;1.60;78.66;94466.09;4949983;28;20199;-76
2022/03/08 07:31:12;;;;;;;11.80;6.07;;;;;;;1.43;77.94;94471.78;4949675;28;20282;-77
2022/03/08 07:33:40;;;;;;;14.70;6.40;;;;;;;1.37;78.92;94470.19;4958373;28;20702;-76
2022/03/08 07:36:08;;;;;;;10.10;6.03;;;;;;;0.80;80.03;94473.34;4939368;28;20671;-76
2022/03/08 07:38:35;;;;;;;15.35;7.68;;;;;;;0.80;80.01;94473.34;4950131;28;20270;-77
2022/03/08 07:41:03;;;;;;;15.77;7.70;;;;;;;0.85;80.28;94470.66;4951365;28;20207;-75
2022/03/08 07:43:30;;;;;;;10.48;5.30;;;;;;;0.84;79.98;94474.38;4950975;28;20207;-76
2022/03/08 07:45:56;;;;;;;11.77;5.05;;;;;;;0.92;79.29;94471.97;4939778;29;20203;-78
2022/03/08 07:48:26;;;;;;;13.25;5.93;;;;;;;0.78;79.82;94476.28;4938481;28;20608;-81
2022/03/08 07:50:53;;;;;;;10.15;5.70;;;;;;;0.92;78.90;94463.19;4943557;28;20216;-80
2022/03/08 07:53:20;;;;;;;22.10;10.50;;;;;;;1.19;79.03;94468.94;4945557;29;20207;-79
2022/03/08 07:55:47;;;;;;;11.15;6.40;;;;;;;0.95;78.61;94465.31;4940190;29;20214;-81
2022/03/08 07:58:14;;;;;;;9.00;5.75;;;;;;;0.43;79.34;94465.66;4946497;28;20532;-77
2022/03/08 08:00:42;;;;;;;8.38;4.70;;;;;;;0.46;79.38;94473.91;4932956;29;20231;-78
2022/03/08 08:03:10;;;;;;;10.50;5.65;;;;;;;0.39;80.17;94473.41;4945661;29;20203;-77
2022/03/08 08:05:39;;;;;;;8.27;3.95;;;;;;;0.23;79.56;94479.81;4940748;29;20241;-77
2022/03/08 08:08:07;;;;;;;18.35;7.85;;;;;;;0.31;80.58;94477.38;4939234;28;20215;-79
2022/03/08 08:10:34;;;;;;;16.40;7.15;;;;;;;0.51;81.12;94471.25;4942819;28;20674;-80
2022/03/08 08:13:01;;;;;;;13.20;6.80;;;;;;;0.76;79.95;94467.75;4945228;29;20215;-77
2022/03/08 08:15:28;;;;;;;13.30;5.72;;;;;;;0.74;79.63;94474.41;4941646;29;20674;-79
2022/03/08 08:17:55;;;;;;;9.35;5.05;;;;;;;1.00;78.07;94474.06;4951424;28;20210;-78
2022/03/08 08:20:22;;;;;;;11.40;6.32;;;;;;;1.10;77.67;94473.22;4942893;28;20220;-78
2022/03/08 08:22:50;;;;;;;9.38;4.95;;;;;;;0.92;77.09;94460.50;4948431;29;20214;-78
2022/03/08 08:25:17;;;;;;;11.60;6.20;;;;;;;0.77;77.92;94473.88;4942108;28;20208;-78
2022/03/08 08:27:44;;;;;;;17.42;9.20;;;;;;;0.64;77.82;94480.56;4944903;29;20226;-77
2022/03/08 08:30:12;;;;;;;15.55;7.60;;;;;;;0.86;77.88;94477.56;4942195;29;20199;-82
2022/03/08 08:32:40;;;;;;;14.75;7.32;;;;;;;1.31;76.80;94480.09;4940821;28;20289;-77
2022/03/08 08:35:08;;;;;;;19.83;8.85;;;;;;;1.10;77.85;94473.22;4945257;28;20243;-77
2022/03/08 08:37:35;;;;;;;16.40;7.63;;;;;;;1.16;76.80;94477.50;4943796;28;20631;-80
2022/03/08 08:40:04;;;;;;;15.52;6.85;;;;;;;1.21;76.76;94480.16;4936100;29;20275;-78
2022/03/08 08:42:31;;;;;;;14.35;7.97;;;;;;;0.87;78.55;94489.84;4948815;28;20647;-78
2022/03/08 08:44:58;;;;;;;9.52;4.13;;;;;;;0.38;77.63;94477.13;4935913;29;20212;-75
2022/03/08 08:47:25;;;;;;;7.80;4.03;;;;;;;0.17;78.56;94489.63;4942704;28;20226;-75
2022/03/08 08:49:52;;;;;;;9.02;5.60;;;;;;;-0.02;80.33;94500.03;4941906;28;20211;-77
2022/03/08 08:52:18;;;;;;;10.20;4.80;;;;;;;0.26;79.35;94495.25;4942639;29;20203;-77
2022/03/08 08:54:48;;;;;;;16.95;7.07;;;;;;;-0.06;79.55;94493.63;4941544;28;20239;-79
2022/03/08 08:57:16;;;;;;;14.45;8.18;;;;;;;-0.25;79.27;94500.50;4946436;28;20215;-75
2022/03/08 08:59:43;;;;;;;18.55;7.95;;;;;;;-0.28;79.05;94501.06;4948882;28;20234;-76
2022/03/08 09:02:10;;;;;;;15.70;8.40;;;;;;;-0.05;79.23;94503.22;4954788;28;20515;-78
2022/03/08 09:04:37;;;;;;;15.60;8.05;;;;;;;-0.29;79.00;94499.44;4953855;28;20214;-77
2022/03/08 09:07:04;;;;;;;12.13;5.22;;;;;;;-0.16;77.60;94500.81;4946554;28;20686;-80
2022/03/08 09:09:31;;;;;;;11.23;5.35;;;;;;;-0.04;77.59;94491.50;4950257;28;20203;-84
2022/03/08 09:11:58;;;;;;;15.38;8.32;;;;;;;-0.25;77.94;94494.38;4935504;29;20214;-82
2022/03/08 09:14:27;;;;;;;13.43;7.45;;;;;;;-0.08;78.22;94489.63;4949050;29;20230;-84
2022/03/08 09:16:53;;;;;;;11.20;5.93;;;;;;;-0.09;77.46;94499.47;4944616;29;20208;-79
2022/03/08 09:19:20;;;;;;;13.15;6.28;;;;;;;0.04;77.42;94497.34;4952517;28;20219;-85
2022/03/08 09:21:47;;;;;;;15.65;8.02;;;;;;;0.12;76.52;94500.31;4943781;29;20207;-79
2022/03/08 09:24:14;;;;;;;14.35;7.45;;;;;;;0.31;76.47;94498.69;4952428;28;20214;-82
2022/03/08 09:26:41;;;;;;;14.45;6.45;;;;;;;0.15;77.81;94504.28;4944432;29;20223;-78
2022/03/08 09:29:08;;;;;;;17.63;8.63;;;;;;;0.26;77.02;94506.72;4940967;28;20207;-80
2022/03/08 09:31:36;;;;;;;15.63;9.27;;;;;;;0.09;76.92;94500.03;4948138;28;20194;-80
2022/03/08 09:34:03;;;;;;;17.10;7.97;;;;;;;0.47;75.60;94502.16;4952214;28;20638;-78
2022/03/08 09:36:30;;;;;;;22.70;8.63;;;;;;;0.42;75.88;94494.16;4943613;28;20571;-76
2022/03/08 09:38:58;;;;;;;17.77;8.82;;;;;;;0.43;75.76;94490.44;4947298;29;20227;-75
2022/03/08 09:41:25;;;;;;;15.93;8.30;;;;;;;0.74;74.79;94498.41;4944824;28;20278;-76
2022/03/08 09:43:52;;;;;;;21.05;12.93;;;;;;;0.67;75.04;94491.50;4953731;28;20199;-78
2022/03/08 09:46:19;;;;;;;14.20;7.90;;;;;;;1.15;73.42;94486.56;4943695;29;20211;-76
2022/03/08 09:48:48;;;;;;;14.38;6.60;;;;;;;0.96;73.44;94477.53;4947522;28;20613;-78
2022/03/08 09:51:16;;;;;;;16.92;7.55;;;;;;;1.50;72.55;94492.84;4952926;28;20672;-76
2022/03/08 09:53:44;;;;;;;13.45;6.47;;;;;;;1.03;73.24;94486.06;4951809;28;20681;-80
2022/03/08 09:56:11;;;;;;;12.27;7.18;;;;;;;0.98;72.57;94472.75;4951761;28;20218;-76
2022/03/08 09:58:40;;;;;;;16.45;9.07;;;;;;;0.81;72.88;94490.94;4941418;28;20210;-74
2022/03/08 10:01:08;;;;;;;16.08;8.30;;;;;;;0.95;73.19;94490.09;4941406;28;20235;-77
2022/03/08 10:03:38;;;;;;;14.40;7.15;;;;;;;1.41;71.75;94496.06;4946684;29;20678;-76
2022/03/08 10:06:08;;;;;;;19.23;9.13;;;;;;;1.32;71.86;94491.56;4945954;29;20241;-73
2022/03/08 10:08:35;;;;;;;18.02;9.65;;;;;;;1.33;71.93;94487.84;4940276;28;20203;-76
2022/03/08 10:11:04;;;;;;;17.00;8.43;;;;;;;1.19;71.97;94492.97;4943912;28;20204;-72
2022/03/08 10:13:35;;;;;;;16.00;8.20;;;;;;;0.80;72.26;94489.34;4946152;29;20214;-73
2022/03/08 10:16:07;;;;;;;18.55;7.90;;;;;;;0.89;72.48;94495.72;4940438;28;20266;-75
2022/03/08 10:18:34;;;;;;;20.13;10.23;;;;;;;0.82;73.79;94498.63;4953046;28;20214;-78
2022/03/08 10:21:01;;;;;;;11.75;8.23;;;;;;;0.75;72.96;94492.81;4940148;29;20223;-79
2022/03/08 10:23:39;;;;;;;19.17;9.82;;;;;;;0.67;73.97;94488.81;4954687;28;20207;-77
2022/03/08 10:26:06;;;;;;;17.45;8.07;;;;;;;0.71;72.64;94481.88;4957096;28;20195;-78
2022/03/08 10:28:45;;;;;;;14.68;8.32;;;;;;;1.05;74.06;94497.28;4961178;28;20206;-75
2022/03/08 10:31:14;;;;;;;17.95;8.80;;;;;;;1.33;73.22;94485.16;4961404;28;20539;-76
2022/03/08 10:33:41;;;;;;;19.50;7.60;;;;;;;1.16;71.23;94493.50;4939186;29;20801;-75
2022/03/08 10:36:13;;;;;;;14.55;6.25;;;;;;;0.79;73.26;94493.06;4965124;28;20673;-78
2022/03/08 10:38:42;;;;;;;14.20;7.05;;;;;;;1.29;73.43;94490.25;4958640;28;20513;-78
2022/03/08 10:41:19;;;;;;;17.63;8.73;;;;;;;1.53;71.79;94489.59;4942020;28;20833;-79
2022/03/08 10:43:50;;;;;;;14.27;5.65;;;;;;;1.39;71.11;94482.19;4949973;28;20577;-75
2022/03/08 10:46:18;;;;;;;14.13;7.38;;;;;;;1.47;72.33;94480.84;4962497;28;20523;-78
2022/03/08 10:48:47;;;;;;;20.38;9.82;;;;;;;1.39;72.49;94487.53;4955105;28;20226;-75
2022/03/08 10:51:17;;;;;;;9.95;5.90;;;;;;;1.29;72.93;94482.25;4952496;28;20681;-76
2022/03/08 10:53:46;;;;;;;15.85;8.02;;;;;;;1.75;71.33;94479.38;4939505;28;20563;-74
2022/03/08 10:56:22;;;;;;;13.95;7.40;;;;;;;1.42;71.66;94484.31;4962001;28;20222;-75
2022/03/08 10:58:50;;;;;;;19.27;10.07;;;;;;;1.45;73.09;94499.00;4933823;29;20235;-75
2022/03/08 11:01:17;;;;;;;15.68;6.43;;;;;;;1.41;72.69;94495.25;4933169;29;20255;-75
2022/03/08 11:03:56;;;;;;;20.85;9.70;;;;;;;1.53;70.68;94492.28;4939670;29;20211;-76
2022/03/08 11:06:24;;;;;;;8.77;5.13;;;;;;;1.76;71.77;94480.97;4964272;28;20735;-77
2022/03/08 11:08:53;;;;;;;17.05;6.93;;;;;;;1.55;71.44;94490.94;4942735;28;20227;-77
2022/03/08 11:11:21;;;;;;;15.02;7.40;;;;;;;1.71;69.55;94489.00;4946285;29;20234;-77
2022/03/08 11:13:51;;;;;;;20.30;9.48;;;;;;;1.60;70.29;94484.78;4942099;29;20203;-76
2022/03/08 11:16:19;;;;;;;19.85;9.32;;;;;;;1.52;72.70;94480.00;4956844;28;20227;-79
2022/03/08 11:18:49;;;;;;;15.70;8.25;;;;;;;1.68;70.08;94481.53;4952406;28;20816;-78
2022/03/08 11:21:18;;;;;;;17.58;8.40;;;;;;;1.47;69.55;94483.50;4939104;28;20199;-77
2022/03/08 11:23:45;;;;;;;20.83;9.75;;;;;;;1.61;69.77;94475.69;4951196;28;20210;-78
2022/03/08 11:26:14;;;;;;;10.73;5.80;;;;;;;1.55;69.66;94479.47;4965237;28;20217;-80
2022/03/08 11:28:44;;;;;;;5.68;3.67;;;;;;;1.29;69.87;94482.25;4960458;28;20211;-80
2022/03/08 11:31:12;;;;;;;11.23;5.72;;;;;;;0.90;71.82;94478.63;4939340;28;20194;-79